Time;durP1;ratioP1;P1;durP2;ratioP2;P2;SDS_P1;SDS_P2;PMS_P1;PMS_P2;Temp;Humidity;BMP_temperature;BMP_pressure;BME280_temperature;BME280_humidity;BME280_pressure;Samples;Min_cycle;Max_cycle;Signal;HPM_P1;HPM_P2
2023/04/14 07:01:02;;;;;;;7.68;1.23;;;;;;;8.57;61.91;95892.19;2083489;28;21086;-60
2023/04/14 07:02:05;;;;;;;14.20;2.15;;;;;;;8.80;62.40;95884.13;2083308;28;20257;-59
2023/04/14 07:03:06;;;;;;;11.57;1.40;;;;;;;8.75;61.35;95882.66;2080902;28;20231;-59
2023/04/14 07:04:08;;;;;;;5.88;1.30;;;;;;;9.02;61.25;95877.81;2079020;28;20197;-60
2023/04/14 07:05:10;;;;;;;10.65;2.33;;;;;;;9.05;60.16;95882.03;2071850;28;20249;-59
2023/04/14 07:06:15;;;;;;;7.22;2.40;;;;;;;9.13;60.28;95879.91;2075447;28;20193;-60
2023/04/14 07:07:17;;;;;;;3.10;1.42;;;;;;;9.43;59.55;95880.09;2073703;28;20201;-59
2023/04/14 07:08:19;;;;;;;5.38;1.65;;;;;;;9.34;58.98;95877.94;2074604;28;20770;-60
2023/04/14 07:09:21;;;;;;;6.97;1.27;;;;;;;9.69;59.19;95877.84;2072736;28;20646;-59
2023/04/14 07:10:23;;;;;;;3.63;1.23;;;;;;;10.06;57.80;95880.25;2073847;28;20197;-60
2023/04/14 07:11:24;;;;;;;5.18;1.50;;;;;;;9.98;57.41;95875.44;2074234;28;20198;-60
2023/04/14 07:12:26;;;;;;;11.20;1.80;;;;;;;10.14;57.36;95878.03;2074193;28;20202;-60
2023/04/14 07:13:28;;;;;;;4.85;1.00;;;;;;;10.27;56.10;95876.44;2073151;28;20228;-60
2023/04/14 07:14:31;;;;;;;7.45;1.40;;;;;;;10.24;55.87;95876.59;2074070;28;21069;-60
2023/04/14 07:15:32;;;;;;;5.07;1.30;;;;;;;10.03;55.41;95868.22;2071904;28;20656;-59
2023/04/14 07:16:33;;;;;;;9.40;1.48;;;;;;;10.36;56.07;95869.03;2072242;28;20193;-60
2023/04/14 07:17:35;;;;;;;8.40;1.70;;;;;;;10.49;56.18;95872.66;2072892;28;20193;-60
2023/04/14 07:18:37;;;;;;;6.05;1.60;;;;;;;10.53;56.31;95879.38;2073323;28;20204;-60
2023/04/14 07:19:38;;;;;;;54.80;32.75;;;;;;;10.71;56.40;95866.22;2072425;28;20623;-61
2023/04/14 07:20:40;;;;;;;49.50;23.05;;;;;;;10.97;55.51;95875.16;2072816;28;20593;-60
2023/04/14 07:21:43;;;;;;;9.57;5.07;;;;;;;11.29;54.45;95872.41;2074681;28;20288;-59
2023/04/14 07:22:45;;;;;;;11.15;3.78;;;;;;;11.49;53.74;95870.34;2074911;28;20620;-59
2023/04/14 07:23:46;;;;;;;10.48;2.28;;;;;;;11.31;53.64;95861.84;2074253;28;20197;-60
2023/04/14 07:24:48;;;;;;;5.07;1.60;;;;;;;11.63;53.72;95859.91;2072084;28;20225;-60
2023/04/14 07:25:54;;;;;;;2.97;1.45;;;;;;;11.73;52.56;95863.63;2074664;28;20244;-60
2023/04/14 07:26:55;;;;;;;5.65;1.80;;;;;;;11.58;52.59;95857.56;2074113;28;20197;-59
2023/04/14 07:27:57;;;;;;;5.53;1.40;;;;;;;11.68;52.56;95855.22;2071881;28;20210;-59
2023/04/14 07:29:04;;;;;;;4.20;1.10;;;;;;;11.71;52.57;95856.81;2075219;28;20712;-60
2023/04/14 07:30:06;;;;;;;9.45;1.80;;;;;;;11.74;51.76;95860.09;2070841;28;20680;-60
2023/04/14 07:31:09;;;;;;;6.00;1.98;;;;;;;11.69;51.41;95850.84;2077917;28;20193;-60
2023/04/14 07:32:12;;;;;;;12.65;2.00;;;;;;;11.48;51.79;95853.84;2077335;28;20840;-60
2023/04/14 07:33:18;;;;;;;6.57;1.50;;;;;;;11.38;52.59;95857.94;2073957;28;20331;-60
2023/04/14 07:34:19;;;;;;;9.05;2.55;;;;;;;11.54;52.39;95856.06;2073616;28;20193;-59
2023/04/14 07:35:23;;;;;;;9.60;1.50;;;;;;;12.07;52.00;95856.34;2073739;28;20425;-59
2023/04/14 07:36:25;;;;;;;5.93;1.40;;;;;;;12.34;50.67;95852.88;2072037;28;20205;-60
2023/04/14 07:37:27;;;;;;;8.90;2.13;;;;;;;12.28;51.18;95853.28;2073859;28;20202;-59
2023/04/14 07:38:28;;;;;;;11.75;1.55;;;;;;;12.09;51.04;95849.22;2074525;28;20201;-59
2023/04/14 07:39:30;;;;;;;11.27;1.95;;;;;;;11.95;51.04;95851.84;2073160;28;20221;-60
2023/04/14 07:40:31;;;;;;;4.72;1.73;;;;;;;12.17;50.70;95858.34;2074080;28;20194;-59
2023/04/14 07:41:33;;;;;;;2.50;0.98;;;;;;;12.09;51.13;95853.63;2077087;28;20205;-60
2023/04/14 07:42:35;;;;;;;4.30;1.30;;;;;;;11.87;51.52;95854.94;2073792;28;20810;-59
2023/04/14 07:43:38;;;;;;;8.25;1.55;;;;;;;12.42;51.77;95852.38;2072014;28;20236;-60
2023/04/14 07:44:40;;;;;;;7.63;1.50;;;;;;;12.37;51.12;95854.47;2072342;28;20225;-60
2023/04/14 07:45:42;;;;;;;4.53;1.25;;;;;;;11.81;50.63;95854.44;2072383;28;20201;-62
2023/04/14 07:46:43;;;;;;;4.82;1.50;;;;;;;12.06;51.53;95859.03;2075192;28;20649;-61
2023/04/14 07:47:45;;;;;;;4.65;1.35;;;;;;;12.12;51.44;95855.19;2074504;28;20205;-62
2023/04/14 07:48:47;;;;;;;6.88;1.48;;;;;;;11.99;50.67;95852.50;2074507;28;20577;-62
2023/04/14 07:49:48;;;;;;;7.22;1.40;;;;;;;12.08;51.25;95857.16;2072906;28;20325;-61
2023/04/14 07:50:50;;;;;;;6.32;1.35;;;;;;;11.97;50.66;95852.59;2072222;28;20250;-62
2023/04/14 07:51:51;;;;;;;10.07;1.60;;;;;;;12.03;51.39;95846.97;2074106;28;20205;-62
2023/04/14 07:52:53;;;;;;;4.68;1.42;;;;;;;12.43;50.86;95842.75;2072365;28;20198;-62
2023/04/14 07:53:54;;;;;;;4.90;1.27;;;;;;;12.71;50.15;95855.72;2073472;28;20638;-62
2023/04/14 07:54:56;;;;;;;8.65;1.20;;;;;;;12.99;48.44;95847.78;2073340;28;20217;-62
2023/04/14 07:55:58;;;;;;;7.65;1.42;;;;;;;12.97;49.20;95854.94;2074694;28;20206;-61
2023/04/14 07:57:00;;;;;;;7.35;1.77;;;;;;;12.86;49.58;95835.53;2073715;28;20245;-61
2023/04/14 07:58:01;;;;;;;6.57;1.10;;;;;;;12.75;49.85;95843.28;2074016;28;20229;-62
2023/04/14 07:59:03;;;;;;;5.45;1.60;;;;;;;12.90;49.51;95851.91;2073120;28;20213;-62
2023/04/14 08:00:05;;;;;;;4.32;1.30;;;;;;;13.05;48.70;95842.16;2071186;28;20237;-62
2023/04/14 08:01:06;;;;;;;6.18;1.60;;;;;;;13.23;48.96;95845.31;2073355;28;20214;-62
2023/04/14 08:02:08;;;;;;;9.98;1.40;;;;;;;13.08;47.94;95847.19;2072183;28;20609;-62
2023/04/14 08:03:10;;;;;;;3.85;1.40;;;;;;;12.81;48.75;95844.63;2072703;28;20194;-62
2023/04/14 08:04:11;;;;;;;5.53;1.30;;;;;;;12.70;49.24;95853.22;2072819;28;20753;-62
2023/04/14 08:05:13;;;;;;;8.10;1.70;;;;;;;13.08;49.58;95852.44;2074878;28;20335;-62
2023/04/14 08:06:15;;;;;;;4.55;1.42;;;;;;;13.34;48.89;95840.16;2075187;28;20206;-62
2023/04/14 08:07:17;;;;;;;3.72;1.23;;;;;;;13.59;49.35;95835.91;2074030;28;20228;-62
2023/04/14 08:08:18;;;;;;;3.60;1.48;;;;;;;13.47;48.08;95840.22;2073984;28;20202;-62
2023/04/14 08:09:19;;;;;;;6.30;1.65;;;;;;;13.30;46.79;95848.38;2071402;28;20205;-62
2023/04/14 08:10:21;;;;;;;6.80;1.40;;;;;;;12.78;47.14;95845.66;2071868;28;20194;-62
2023/04/14 08:11:23;;;;;;;8.15;1.80;;;;;;;12.96;47.02;95856.69;2072630;28;20190;-62
2023/04/14 08:12:24;;;;;;;8.43;1.48;;;;;;;12.98;47.58;95844.34;2065857;28;20209;-62
2023/04/14 08:13:26;;;;;;;21.50;7.47;;;;;;;12.70;48.22;95851.41;2068105;28;20190;-61
2023/04/14 08:14:28;;;;;;;41.58;20.77;;;;;;;13.13;48.34;95852.09;2071874;28;20210;-61
2023/04/14 08:15:31;;;;;;;9.77;5.03;;;;;;;13.11;47.88;95844.34;2072415;28;20194;-62
2023/04/14 08:16:35;;;;;;;17.02;7.65;;;;;;;12.88;48.55;95851.97;2070904;28;20206;-60
2023/04/14 08:17:37;;;;;;;5.60;2.40;;;;;;;12.39;48.91;95855.19;2067908;28;20595;-60
2023/04/14 08:18:39;;;;;;;5.32;1.52;;;;;;;12.43;49.58;95854.06;2069642;28;20194;-60
2023/04/14 08:19:40;;;;;;;4.93;1.35;;;;;;;12.79;49.21;95857.00;2066413;28;20885;-60
2023/04/14 08:20:43;;;;;;;6.50;1.30;;;;;;;12.81;48.86;95855.09;2067041;28;20732;-60
2023/04/14 08:21:44;;;;;;;9.40;2.03;;;;;;;12.89;48.81;95844.97;2068794;28;20224;-61
2023/04/14 08:22:46;;;;;;;9.13;1.98;;;;;;;13.09;48.93;95855.88;2067377;28;20209;-61
2023/04/14 08:23:47;;;;;;;3.95;1.33;;;;;;;12.72;48.97;95852.16;2069136;28;20193;-60
2023/04/14 08:24:49;;;;;;;5.25;1.20;;;;;;;12.79;49.54;95857.84;2070340;28;20224;-60
2023/04/14 08:25:50;;;;;;;8.80;1.77;;;;;;;12.77;49.36;95859.69;2068690;28;20336;-60
2023/04/14 08:26:53;;;;;;;8.95;1.77;;;;;;;12.62;48.73;95839.75;2067797;28;20201;-60
2023/04/14 08:27:55;;;;;;;4.68;1.50;;;;;;;12.52;48.95;95861.31;2067888;28;20194;-60
2023/04/14 08:28:56;;;;;;;7.00;1.50;;;;;;;12.87;49.20;95846.84;2066982;28;20276;-60
2023/04/14 08:29:57;;;;;;;7.43;1.42;;;;;;;12.40;48.96;95856.88;2067614;28;20233;-60
2023/04/14 08:30:59;;;;;;;4.05;1.63;;;;;;;12.12;49.03;95863.88;2071128;28;20201;-60
2023/04/14 08:32:00;;;;;;;10.02;1.63;;;;;;;12.46;48.77;95855.66;2068897;28;20233;-60
2023/04/14 08:33:02;;;;;;;8.15;1.40;;;;;;;12.73;47.94;95860.84;2069329;28;20286;-60
2023/04/14 08:34:04;;;;;;;2.97;1.00;;;;;;;12.52;47.56;95863.94;2069406;28;20202;-60
2023/04/14 08:35:05;;;;;;;6.15;1.35;;;;;;;12.70;48.21;95861.91;2068131;28;20226;-60
2023/04/14 08:36:27;;;;;;;7.28;1.40;;;;;;;12.18;48.22;95866.09;2067229;28;20224;-61
2023/04/14 08:37:28;;;;;;;7.55;1.67;;;;;;;12.17;47.90;95860.97;2066214;28;20877;-60
2023/04/14 08:38:30;;;;;;;4.20;1.35;;;;;;;12.33;47.63;95853.81;2066854;28;20211;-60
2023/04/14 08:39:31;;;;;;;6.68;1.52;;;;;;;12.32;48.32;95859.16;2066615;28;20214;-60
2023/04/14 08:40:41;;;;;;;5.15;1.55;;;;;;;12.17;48.96;95853.13;2068785;28;20198;-60
2023/04/14 08:41:43;;;;;;;7.07;1.58;;;;;;;12.24;48.30;95862.28;2074834;28;20246;-60
2023/04/14 08:42:45;;;;;;;5.65;1.55;;;;;;;12.67;48.87;95856.00;2075792;28;20201;-60
2023/04/14 08:43:46;;;;;;;10.07;1.67;;;;;;;12.60;48.92;95854.75;2066595;28;20199;-60
2023/04/14 08:44:48;;;;;;;5.40;1.35;;;;;;;12.49;49.26;95856.28;2069667;28;20234;-60
2023/04/14 08:45:51;;;;;;;4.45;1.58;;;;;;;12.64;48.99;95854.44;2068972;28;20199;-60
2023/04/14 08:46:54;;;;;;;6.47;1.15;;;;;;;12.34;49.12;95852.88;2067517;28;20257;-60
2023/04/14 08:47:57;;;;;;;5.30;1.35;;;;;;;12.76;48.68;95857.19;2066781;28;20194;-60
2023/04/14 08:49:04;;;;;;;8.65;1.98;;;;;;;12.36;48.27;95858.84;2067268;28;20222;-60
2023/04/14 08:50:12;;;;;;;4.93;1.10;;;;;;;12.38;48.23;95856.16;2068168;28;20789;-60
2023/04/14 08:51:31;;;;;;;5.38;1.30;;;;;;;11.93;48.78;95844.09;2068458;28;20205;-60
2023/04/14 08:52:35;;;;;;;3.88;1.25;;;;;;;11.48;47.98;95852.97;2067503;28;20208;-60
2023/04/14 08:53:44;;;;;;;7.10;1.60;;;;;;;11.44;48.96;95852.34;2067592;28;20202;-60
2023/04/14 08:54:49;;;;;;;11.82;2.38;;;;;;;11.35;49.37;95855.50;2067157;28;20226;-60
2023/04/14 08:55:51;;;;;;;4.60;1.75;;;;;;;11.95;48.86;95850.97;2068204;28;20233;-60
2023/04/14 08:56:57;;;;;;;7.72;1.40;;;;;;;12.48;49.18;95856.38;2069704;28;20209;-60
2023/04/14 08:58:01;;;;;;;10.18;1.58;;;;;;;12.01;48.58;95853.25;2068146;28;20233;-59
2023/04/14 08:59:05;;;;;;;5.63;1.40;;;;;;;12.25;48.32;95845.59;2071717;28;20209;-59
2023/04/14 09:00:08;;;;;;;5.82;1.60;;;;;;;12.38;48.23;95853.53;2070940;28;20225;-60
2023/04/14 09:01:10;;;;;;;10.50;1.50;;;;;;;12.23;48.14;95850.94;2067032;28;20199;-60
2023/04/14 09:02:13;;;;;;;6.03;2.35;;;;;;;11.84;47.93;95849.88;2070998;28;20617;-57
2023/04/14 09:03:15;;;;;;;5.90;1.30;;;;;;;11.91;48.90;95859.03;2071114;28;20288;-58
2023/04/14 09:04:19;;;;;;;10.32;4.05;;;;;;;11.84;49.36;95855.09;2066816;28;20582;-57
2023/04/14 09:05:20;;;;;;;8.68;3.20;;;;;;;12.01;49.00;95848.88;2067244;28;20724;-57
2023/04/14 09:06:22;;;;;;;11.52;2.63;;;;;;;11.49;48.64;95852.03;2067784;28;20321;-58
2023/04/14 09:07:25;;;;;;;4.82;1.30;;;;;;;11.99;49.28;95855.13;2065312;28;20199;-57
2023/04/14 09:08:32;;;;;;;4.90;1.50;;;;;;;12.21;48.27;95852.84;2067344;28;20673;-58
2023/04/14 09:09:34;;;;;;;8.68;1.90;;;;;;;12.42;47.74;95849.78;2066438;28;20700;-58
2023/04/14 09:10:37;;;;;;;7.20;1.40;;;;;;;12.37;47.22;95844.00;2068917;28;20289;-57
2023/04/14 09:11:40;;;;;;;8.43;1.52;;;;;;;12.79;47.60;95860.44;2067675;28;20214;-57
2023/04/14 09:12:42;;;;;;;7.78;1.80;;;;;;;12.98;47.42;95854.00;2066431;28;20234;-57
2023/04/14 09:13:44;;;;;;;6.43;1.20;;;;;;;12.76;46.75;95852.81;2067870;28;20195;-57
2023/04/14 09:14:47;;;;;;;5.70;1.38;;;;;;;12.95;46.49;95851.56;2067453;28;20677;-58
2023/04/14 09:15:48;;;;;;;8.20;1.40;;;;;;;13.03;46.60;95850.13;2068045;28;20233;-57
2023/04/14 09:16:52;;;;;;;4.80;1.05;;;;;;;13.23;47.16;95856.63;2066753;28;20206;-57
2023/04/14 09:17:54;;;;;;;4.10;1.30;;;;;;;13.43;46.78;95856.25;2068907;28;20290;-58
2023/04/14 09:18:56;;;;;;;5.72;1.23;;;;;;;13.61;46.42;95859.38;2068461;28;20205;-58
2023/04/14 09:20:07;;;;;;;7.03;1.30;;;;;;;13.78;46.08;95853.81;2069735;28;20818;-57
2023/04/14 09:21:29;;;;;;;7.07;1.42;;;;;;;12.96;44.64;95853.25;2067215;28;20264;-58
2023/04/14 09:22:52;;;;;;;8.93;2.03;;;;;;;12.40;47.13;95851.63;2068653;28;20273;-58
2023/04/14 09:23:53;;;;;;;9.48;1.75;;;;;;;12.71;45.84;95849.66;2069477;28;20229;-58
2023/04/14 09:24:56;;;;;;;6.53;1.40;;;;;;;12.81;44.94;95847.25;2067052;28;21001;-57
2023/04/14 09:25:57;;;;;;;9.43;1.33;;;;;;;12.43;45.73;95848.84;2066131;28;20272;-58
2023/04/14 09:27:02;;;;;;;11.02;1.67;;;;;;;12.86;46.48;95840.78;2066696;28;20199;-57
2023/04/14 09:28:03;;;;;;;7.10;1.50;;;;;;;12.72;46.09;95853.94;2066311;28;20190;-57
2023/04/14 09:29:05;;;;;;;5.68;1.70;;;;;;;13.11;45.44;95849.59;2068271;28;20198;-58
2023/04/14 09:30:08;;;;;;;7.57;1.42;;;;;;;13.44;45.90;95840.41;2066072;28;20222;-57
2023/04/14 09:31:10;;;;;;;4.38;1.52;;;;;;;13.61;44.90;95841.88;2066822;28;20213;-57
2023/04/14 09:32:11;;;;;;;4.68;1.70;;;;;;;14.13;45.13;95842.59;2071512;28;20190;-58
2023/04/14 09:33:21;;;;;;;4.10;1.27;;;;;;;13.47;44.92;95850.72;2071876;28;20237;-58
2023/04/14 09:34:27;;;;;;;4.32;1.10;;;;;;;12.94;45.08;95849.88;2066468;28;20198;-57
2023/04/14 09:35:44;;;;;;;3.72;1.20;;;;;;;12.16;44.96;95846.19;2068048;28;20708;-57
2023/04/14 09:37:03;;;;;;;6.05;1.25;;;;;;;11.92;45.78;95839.78;2067789;28;20209;-57
2023/04/14 09:38:05;;;;;;;4.18;1.20;;;;;;;12.18;45.86;95844.34;2068145;28;20199;-57
2023/04/14 09:39:16;;;;;;;7.97;1.70;;;;;;;12.37;46.14;95846.63;2070964;28;20198;-57
2023/04/14 09:40:28;;;;;;;10.95;1.73;;;;;;;12.50;45.75;95846.66;2067103;28;20222;-57
2023/04/14 09:41:30;;;;;;;2.72;1.20;;;;;;;12.80;45.38;95848.19;2068138;28;20271;-57
2023/04/14 09:42:39;;;;;;;7.80;1.60;;;;;;;13.12;45.19;95847.84;2067761;28;20217;-57
2023/04/14 09:43:41;;;;;;;4.05;1.20;;;;;;;13.28;45.55;95851.09;2067152;28;20213;-57
2023/04/14 09:44:56;;;;;;;5.13;1.83;;;;;;;13.37;45.31;95850.50;2067116;28;20225;-57
2023/04/14 09:46:07;;;;;;;4.65;1.73;;;;;;;13.80;45.46;95851.94;2068429;28;20714;-58
2023/04/14 09:47:09;;;;;;;4.15;1.20;;;;;;;14.12;45.13;95854.06;2066410;28;20723;-57
2023/04/14 09:48:14;;;;;;;4.28;1.35;;;;;;;14.09;44.37;95853.44;2067276;28;20202;-58
2023/04/14 09:49:15;;;;;;;4.78;1.20;;;;;;;13.58;43.30;95854.38;2070613;28;20311;-57
2023/04/14 09:50:17;;;;;;;6.20;1.65;;;;;;;12.99;43.99;95853.03;2070121;28;20209;-57
2023/04/14 09:51:28;;;;;;;7.93;1.25;;;;;;;13.15;44.13;95858.09;2065451;28;20202;-57
2023/04/14 09:52:38;;;;;;;10.77;1.65;;;;;;;13.50;43.26;95847.84;2067773;28;20198;-58
2023/04/14 09:53:40;;;;;;;4.47;1.50;;;;;;;13.55;43.36;95856.25;2067766;28;20363;-58
2023/04/14 09:54:41;;;;;;;8.95;1.30;;;;;;;13.78;42.77;95842.50;2064850;28;20245;-57
2023/04/14 09:55:44;;;;;;;4.40;1.40;;;;;;;14.18;44.74;95851.00;2066431;28;20209;-57
2023/04/14 09:56:45;;;;;;;10.98;1.50;;;;;;;13.99;44.31;95853.22;2067297;28;20717;-58
2023/04/14 09:57:47;;;;;;;7.00;1.42;;;;;;;14.21;43.41;95844.69;2064627;28;20201;-57
2023/04/14 09:58:49;;;;;;;3.28;1.20;;;;;;;14.68;42.85;95845.66;2065555;28;20211;-58
2023/04/14 09:59:50;;;;;;;7.15;1.40;;;;;;;14.53;43.11;95852.81;2068089;28;20225;-57
2023/04/14 10:00:52;;;;;;;7.30;1.80;;;;;;;14.33;42.36;95856.06;2066084;28;20282;-58
2023/04/14 10:01:57;;;;;;;3.85;1.05;;;;;;;13.72;42.52;95851.59;2066456;28;20194;-58
2023/04/14 10:03:00;;;;;;;4.38;1.33;;;;;;;12.49;43.85;95855.44;2065807;28;20198;-58
2023/04/14 10:04:02;;;;;;;8.82;1.38;;;;;;;12.05;44.85;95839.88;2065933;28;20723;-58
2023/04/14 10:05:05;;;;;;;8.20;1.63;;;;;;;11.85;45.13;95848.94;2064847;28;20665;-57
2023/04/14 10:06:09;;;;;;;4.05;1.40;;;;;;;11.65;45.17;95846.72;2067749;28;20201;-57
2023/04/14 10:07:11;;;;;;;8.02;1.88;;;;;;;11.53;45.84;95851.78;2070809;28;20637;-57
2023/04/14 10:08:12;;;;;;;7.78;1.60;;;;;;;11.14;46.05;95847.19;2065105;28;20230;-57
2023/04/14 10:09:21;;;;;;;6.18;1.63;;;;;;;11.18;46.65;95846.06;2071656;28;20205;-58
2023/04/14 10:10:23;;;;;;;6.30;1.40;;;;;;;10.98;46.86;95844.63;2067412;28;20233;-57
2023/04/14 10:11:28;;;;;;;7.03;2.22;;;;;;;10.82;46.76;95834.22;2066279;28;20197;-57
2023/04/14 10:12:30;;;;;;;7.40;1.30;;;;;;;10.84;46.78;95842.84;2067891;28;20202;-57
2023/04/14 10:13:31;;;;;;;8.70;1.73;;;;;;;11.58;46.11;95838.44;2068058;28;20202;-57
2023/04/14 10:14:33;;;;;;;5.40;1.50;;;;;;;12.25;45.00;95838.59;2066519;28;20241;-57
2023/04/14 10:15:34;;;;;;;14.43;2.20;;;;;;;12.60;44.68;95834.63;2066852;28;20384;-57
2023/04/14 10:16:36;;;;;;;4.60;1.50;;;;;;;12.69;44.41;95833.19;2067882;28;20237;-57
2023/04/14 10:17:38;;;;;;;4.88;1.15;;;;;;;12.51;44.25;95836.06;2068444;28;20209;-57
2023/04/14 10:18:39;;;;;;;4.07;1.65;;;;;;;12.60;44.57;95841.66;2065852;28;20241;-57
2023/04/14 10:19:41;;;;;;;8.52;1.65;;;;;;;12.66;43.43;95825.53;2065468;28;20222;-58
2023/04/14 10:20:43;;;;;;;6.38;1.75;;;;;;;12.84;43.30;95839.19;2067885;28;20198;-57
2023/04/14 10:21:45;;;;;;;5.30;1.40;;;;;;;13.38;43.12;95806.75;2067230;28;20209;-58
2023/04/14 10:22:46;;;;;;;5.03;1.35;;;;;;;13.75;41.69;95833.03;2065103;28;20221;-58
2023/04/14 10:23:49;;;;;;;11.63;1.80;;;;;;;13.22;41.38;95826.13;2067562;28;20201;-58
2023/04/14 10:24:51;;;;;;;7.72;1.33;;;;;;;13.22;43.12;95836.59;2065587;28;20579;-58
2023/04/14 10:25:53;;;;;;;11.10;1.30;;;;;;;14.63;40.89;95828.53;2066697;28;20630;-58
2023/04/14 10:26:56;;;;;;;5.15;1.65;;;;;;;15.02;39.85;95821.28;2069257;28;20206;-57
2023/04/14 10:27:57;;;;;;;4.80;1.50;;;;;;;15.89;40.26;95827.81;2067437;28;20194;-58
2023/04/14 10:29:01;;;;;;;5.80;1.50;;;;;;;16.04;39.93;95823.13;2066899;28;20219;-57
2023/04/14 10:30:05;;;;;;;5.55;1.48;;;;;;;16.35;38.27;95824.13;2067969;28;20680;-58
2023/04/14 10:31:10;;;;;;;7.88;1.55;;;;;;;15.30;39.36;95824.41;2067204;28;20207;-57
2023/04/14 10:32:14;;;;;;;4.20;1.25;;;;;;;14.72;40.41;95806.84;2066637;28;20252;-58
2023/04/14 10:33:16;;;;;;;7.90;2.17;;;;;;;13.91;41.00;95816.22;2070289;28;20745;-57
2023/04/14 10:34:18;;;;;;;7.53;1.35;;;;;;;13.52;42.04;95819.75;2060332;28;20241;-58
2023/04/14 10:35:20;;;;;;;8.18;1.48;;;;;;;13.47;43.28;95815.75;2066338;28;20202;-58
2023/04/14 10:36:26;;;;;;;6.40;1.30;;;;;;;13.66;43.67;95824.03;2066326;28;20203;-58
2023/04/14 10:37:28;;;;;;;9.35;1.73;;;;;;;13.46;43.60;95821.94;2070873;28;20608;-58
2023/04/14 10:38:37;;;;;;;4.40;1.10;;;;;;;13.03;42.83;95812.59;2070857;28;20233;-58
2023/04/14 10:39:39;;;;;;;4.88;1.60;;;;;;;12.62;43.50;95816.19;2065803;28;20229;-57
2023/04/14 10:40:45;;;;;;;6.18;1.45;;;;;;;12.86;43.90;95816.34;2069448;28;21189;-58
2023/04/14 10:41:51;;;;;;;6.45;1.40;;;;;;;14.08;42.39;95822.88;2071301;28;20194;-58
2023/04/14 10:42:54;;;;;;;6.18;1.33;;;;;;;14.81;40.54;95803.53;2065583;28;20219;-57
2023/04/14 10:43:56;;;;;;;5.05;1.52;;;;;;;14.91;39.06;95816.00;2066190;28;20208;-58
2023/04/14 10:45:04;;;;;;;8.93;1.52;;;;;;;15.22;39.70;95813.66;2064017;28;20743;-58
2023/04/14 10:46:08;;;;;;;12.10;1.50;;;;;;;16.14;39.11;95809.09;2068580;28;20785;-58
2023/04/14 10:47:22;;;;;;;4.85;1.65;;;;;;;16.70;39.78;95811.69;2060777;28;20206;-58
2023/04/14 10:48:32;;;;;;;5.43;1.60;;;;;;;16.73;39.19;95809.59;2058953;28;20281;-58
2023/04/14 10:49:38;;;;;;;7.00;1.75;;;;;;;16.37;39.21;95809.03;2066504;28;20225;-57
2023/04/14 10:50:47;;;;;;;5.00;1.88;;;;;;;15.90;39.89;95808.44;2065538;28;20229;-58
2023/04/14 10:51:49;;;;;;;3.65;1.42;;;;;;;16.55;39.45;95804.06;2065828;28;20197;-58
2023/04/14 10:52:54;;;;;;;3.67;1.23;;;;;;;17.36;38.02;95806.16;2065647;28;20207;-58
2023/04/14 10:53:56;;;;;;;7.53;1.23;;;;;;;17.90;37.61;95803.31;2067745;28;20285;-58
2023/04/14 10:55:08;;;;;;;8.38;1.60;;;;;;;17.00;36.50;95800.41;2066795;28;20229;-58
2023/04/14 10:56:10;;;;;;;5.43;1.60;;;;;;;16.46;38.43;95789.84;2067483;28;20587;-58
2023/04/14 10:57:13;;;;;;;8.15;1.85;;;;;;;16.07;38.29;95792.09;2065553;28;20202;-58
2023/04/14 10:58:19;;;;;;;4.30;1.60;;;;;;;17.01;36.99;95799.41;2068040;28;20213;-58
2023/04/14 10:59:21;;;;;;;4.85;1.60;;;;;;;16.17;36.99;95786.94;2066690;28;20198;-58
2023/04/14 11:00:27;;;;;;;4.28;1.67;;;;;;;15.78;37.25;95792.63;2066921;28;20257;-58
2023/04/14 11:01:31;;;;;;;5.93;1.42;;;;;;;15.05;37.72;95792.13;2067001;28;20791;-58
2023/04/14 11:02:33;;;;;;;4.45;1.45;;;;;;;15.68;37.33;95792.50;2065620;28;20661;-60
2023/04/14 11:03:43;;;;;;;6.10;1.60;;;;;;;15.75;37.78;95787.59;2067228;28;20198;-60
2023/04/14 11:04:57;;;;;;;4.47;1.20;;;;;;;15.85;36.80;95797.44;2065081;28;20356;-60
2023/04/14 11:05:58;;;;;;;10.45;1.77;;;;;;;17.51;36.10;95788.19;2066764;28;20202;-60
2023/04/14 11:07:08;;;;;;;13.48;1.80;;;;;;;18.49;35.46;95780.50;2064029;28;20721;-60
2023/04/14 11:08:34;;;;;;;10.95;1.38;;;;;;;16.92;34.47;95781.75;2066118;28;20190;-60
2023/04/14 11:09:36;;;;;;;4.10;1.33;;;;;;;17.28;35.28;95783.06;2064970;28;20238;-60
2023/04/14 11:10:37;;;;;;;4.45;1.15;;;;;;;16.95;35.45;95784.97;2065898;28;20517;-60
2023/04/14 11:11:41;;;;;;;8.73;1.65;;;;;;;16.73;36.58;95785.06;2066381;28;20549;-60
2023/04/14 11:12:43;;;;;;;4.95;1.50;;;;;;;16.56;36.80;95783.81;2068453;28;20201;-60
2023/04/14 11:14:11;;;;;;;8.55;1.60;;;;;;;17.50;36.93;95783.88;2070860;28;20401;-60
2023/04/14 11:15:15;;;;;;;10.05;2.25;;;;;;;17.73;37.29;95775.75;2060371;28;20211;-60
2023/04/14 11:16:26;;;;;;;3.58;1.10;;;;;;;18.59;36.77;95781.34;2060146;28;20286;-60
2023/04/14 11:17:32;;;;;;;6.00;1.52;;;;;;;18.73;36.81;95771.34;2061073;28;20317;-60
2023/04/14 11:18:44;;;;;;;5.60;1.67;;;;;;;19.72;35.13;95764.81;2060455;28;20206;-60
2023/04/14 11:19:47;;;;;;;3.47;1.15;;;;;;;20.00;33.48;95765.69;2062721;28;20226;-60
2023/04/14 11:20:50;;;;;;;5.30;1.13;;;;;;;19.95;34.29;95765.28;2067488;28;20237;-60
2023/04/14 11:21:52;;;;;;;4.05;1.15;;;;;;;18.85;34.88;95762.25;2068205;28;20190;-61
2023/04/14 11:22:57;;;;;;;4.80;1.20;;;;;;;19.03;34.89;95756.28;2066961;28;20222;-58
2023/04/14 11:23:59;;;;;;;5.65;1.88;;;;;;;18.70;33.79;95758.38;2067206;28;20545;-58
2023/04/14 11:25:01;;;;;;;4.85;1.23;;;;;;;19.46;33.96;95759.34;2066092;28;20245;-58
2023/04/14 11:26:07;;;;;;;7.50;1.45;;;;;;;18.23;33.27;95744.06;2067571;28;20222;-60
2023/04/14 11:27:10;;;;;;;6.57;1.60;;;;;;;18.46;34.99;95758.81;2069535;28;20193;-60
2023/04/14 11:28:11;;;;;;;6.50;1.85;;;;;;;17.85;35.46;95758.00;2066067;28;20197;-61
2023/04/14 11:29:13;;;;;;;10.55;4.88;;;;;;;17.25;35.11;95764.03;2065958;28;20233;-60
2023/04/14 11:30:19;;;;;;;19.38;8.25;;;;;;;16.94;35.32;95756.09;2067808;28;20650;-61
2023/04/14 11:31:26;;;;;;;8.63;2.40;;;;;;;17.03;36.39;95759.75;2066472;28;20593;-61
2023/04/14 11:32:27;;;;;;;4.22;1.40;;;;;;;16.86;35.66;95754.06;2067218;28;20711;-60
2023/04/14 11:33:31;;;;;;;4.47;1.23;;;;;;;18.21;35.42;95764.50;2069001;28;20202;-59
2023/04/14 11:34:33;;;;;;;2.85;1.20;;;;;;;18.16;34.33;95758.78;2066802;28;20919;-60
2023/04/14 11:35:34;;;;;;;5.47;1.60;;;;;;;19.42;34.61;95756.97;2065130;28;20294;-59
2023/04/14 11:36:38;;;;;;;3.08;1.15;;;;;;;18.88;33.83;95755.84;2067330;28;20238;-60
2023/04/14 11:37:39;;;;;;;3.47;1.48;;;;;;;17.86;34.07;95752.56;2065998;28;20190;-59
2023/04/14 11:38:42;;;;;;;5.55;1.40;;;;;;;16.64;34.92;95758.47;2065715;28;20211;-57
2023/04/14 11:39:43;;;;;;;7.32;1.25;;;;;;;16.70;36.57;95751.88;2065118;28;20681;-58
2023/04/14 11:40:48;;;;;;;5.50;1.40;;;;;;;17.96;34.51;95744.72;2068973;28;20715;-58
2023/04/14 11:41:50;;;;;;;5.38;1.20;;;;;;;16.51;35.19;95754.38;2067787;28;20191;-57
2023/04/14 11:42:56;;;;;;;4.15;1.15;;;;;;;16.49;35.96;95749.22;2065782;28;20207;-57
2023/04/14 11:43:58;;;;;;;4.25;1.45;;;;;;;17.66;35.34;95757.00;2068111;28;20209;-59
2023/04/14 11:45:02;;;;;;;8.43;1.55;;;;;;;16.82;34.29;95750.00;2066192;28;20254;-59
2023/04/14 11:46:06;;;;;;;3.58;1.33;;;;;;;16.37;35.49;95750.25;2066847;28;20198;-59
2023/04/14 11:47:08;;;;;;;4.72;1.95;;;;;;;16.64;35.84;95750.56;2067252;28;20197;-60
2023/04/14 11:48:11;;;;;;;8.05;1.27;;;;;;;17.86;35.83;95752.56;2067373;28;20639;-59
2023/04/14 11:49:12;;;;;;;3.45;1.10;;;;;;;18.98;34.92;95746.13;2068235;28;20201;-59
2023/04/14 11:50:15;;;;;;;8.00;2.25;;;;;;;19.46;33.85;95735.53;2068118;28;20221;-57
2023/04/14 11:51:17;;;;;;;3.35;1.48;;;;;;;19.32;34.35;95742.94;2067458;28;20199;-58
2023/04/14 11:52:19;;;;;;;22.60;9.02;;;;;;;20.21;33.79;95730.09;2067660;28;20203;-59
2023/04/14 11:53:21;;;;;;;15.32;4.68;;;;;;;19.64;34.48;95732.94;2067887;28;20202;-58
2023/04/14 11:54:33;;;;;;;4.40;1.52;;;;;;;20.12;33.44;95731.03;2067685;28;20199;-59
2023/04/14 11:55:35;;;;;;;18.67;10.98;;;;;;;20.77;33.15;95735.25;2067918;28;20201;-62
2023/04/14 11:56:38;;;;;;;4.25;1.60;;;;;;;20.75;32.63;95737.22;2067451;28;20685;-61
2023/04/14 11:57:45;;;;;;;5.22;1.20;;;;;;;19.78;31.80;95735.09;2066861;28;20618;-61
2023/04/14 11:58:47;;;;;;;4.38;1.50;;;;;;;19.51;33.41;95730.63;2068772;28;20202;-61
2023/04/14 11:59:49;;;;;;;5.72;1.20;;;;;;;19.08;32.82;95739.00;2068229;28;20234;-61